Colo, IA (50056)

7:34 PM CST on February 09, 2016 (GMT -0600)
IEM | | Change Station
CLOSE
Current Station
Personal Weather Station
Location: Nevada, IA
Elevation: 1026 ft
Nearby Weather Stations

Elev 1026 ft 42.02 °N, 93.44 °W | Updated 15 minutes ago

Clear
Clear
10 °F
Feels Like 10 °F
N
0
Wind Variable Wind from North
Gusts 0.0 mph

Today
High -- | Low -- °F
--% Chance of Precip.
Yesterday
High -- | Low -- °F
Precip. -- in
Pressure 30.22 in
Visibility 10.0 miles
Clouds Clear
Windchill 10 °F
Dew Point 5 °F
Humidity 78%
Rainfall in
Snow Depth Not available.
7:17 AM 5:37 PM
Waxing Crescent, 3% visible
METAR KAMW 100053Z AUTO 32012KT 10SM CLR M09/M14 A3017 RMK AO2 SLP234 T10941144
Pressure 30.22 in
Visibility 10.0 miles
Clouds Clear
Windchill 10 °F
Dew Point 5 °F
Humidity 78%
Rainfall in
Snow Depth Not available.
7:17 AM 5:37 PM
Waxing Crescent, 3% visible
METAR KAMW 100053Z AUTO 32012KT 10SM CLR M09/M14 A3017 RMK AO2 SLP234 T10941144

10-Day Weather Forecast

Almanac

Astronomy

Feb. 09, 2016 Rise Set
Actual Time
Civil Twilight
Nautical Twilight
Astronomical Twilight
Moon
Length of Visible Light
Length of Day
Tomorrow will be .
, % of the Moon is Illuminated

Today's Extremes

State Highs State Lows

Community

WunderPhotos

Upload Photos

1,891,760 photos uploaded!

WunderBlog® & News

Nearby

Air Quality

  Air Quality AQ Index Pollutant
Not available.

Snow Depth

Station Depth Elevation

Earthquake Activity

City Distance Mag. Time & Date
Minimum magnitude displayed is 2.5.

Coastal Water Temperatures

Place Temperature

Stations

Nearby Weather Stations

Station Location Temp. Windchill Dew Point Humidity Wind Precip. Elev Updated Type
                   

Watches & Warnings

There are currently no watches in effect.